Time;durP1;ratioP1;P1;durP2;ratioP2;P2;SDS_P1;SDS_P2;PMS_P1;PMS_P2;Temp;Humidity;BMP_temperature;BMP_pressure;BME280_temperature;BME280_humidity;BME280_pressure;Samples;Min_cycle;Max_cycle;Signal;HPM_P1;HPM_P2
2021/08/01 16:02:31;;;;;;;6.45;3.90;;;;;;;24.97;63.37;97867.38;125760;1087;102935;-77
2021/08/01 16:05:06;;;;;;;9.90;4.70;;;;;;;24.95;63.57;97869.50;125671;1093;102904;-75
2021/08/01 16:07:51;;;;;;;10.87;4.40;;;;;;;24.92;63.05;97861.80;125612;1093;103044;-74
2021/08/01 16:10:24;;;;;;;9.73;4.30;;;;;;;24.91;62.88;97867.47;125649;1093;102911;-77
2021/08/01 16:12:59;;;;;;;12.87;4.03;;;;;;;24.89;62.82;97877.75;125731;1093;102924;-75
2021/08/01 16:15:48;;;;;;;12.03;4.57;;;;;;;24.81;62.94;97878.92;125661;1094;102929;-76
2021/08/01 16:18:18;;;;;;;12.50;5.67;;;;;;;24.76;63.08;97868.77;125696;1093;102918;-80
2021/08/01 16:20:48;;;;;;;10.60;5.30;;;;;;;24.73;62.75;97873.81;125636;1092;103933;-81
2021/08/01 16:23:25;;;;;;;10.33;5.40;;;;;;;24.68;62.73;97869.06;125575;1093;103642;-79
2021/08/01 16:25:56;;;;;;;12.53;5.40;;;;;;;24.63;63.08;97871.64;125624;1096;103064;-80
2021/08/01 16:28:25;;;;;;;11.50;4.90;;;;;;;24.60;62.98;97861.23;125830;1093;102987;-80
2021/08/01 16:30:54;;;;;;;9.63;4.63;;;;;;;24.58;62.99;97856.05;125637;1095;103012;-73
2021/08/01 16:33:30;;;;;;;9.35;4.40;;;;;;;24.54;62.74;97857.56;125664;1094;103068;-76
2021/08/01 16:36:02;;;;;;;9.18;4.93;;;;;;;24.51;62.67;97849.88;125682;1093;103113;-74
2021/08/01 16:38:32;;;;;;;10.97;4.20;;;;;;;24.45;62.72;97853.52;125717;1093;103010;-79
2021/08/01 16:41:38;;;;;;;10.77;4.60;;;;;;;24.39;62.63;97841.69;125822;1092;102970;-79
2021/08/01 16:44:27;;;;;;;14.87;5.07;;;;;;;24.33;62.22;97848.05;125915;1093;102911;-82
2021/08/01 16:47:19;;;;;;;11.57;5.07;;;;;;;24.30;62.60;97843.07;125620;1093;103002;-78
2021/08/01 16:50:14;;;;;;;11.43;4.70;;;;;;;24.30;62.62;97852.04;125618;1091;103057;-80
2021/08/01 16:53:12;;;;;;;13.23;5.90;;;;;;;24.28;62.95;97843.28;125663;1093;103007;-82
2021/08/01 16:55:58;;;;;;;13.83;5.57;;;;;;;24.29;62.50;97836.80;125870;1093;102971;-79
2021/08/01 16:58:44;;;;;;;9.93;4.60;;;;;;;24.28;62.67;97840.56;125589;1093;102988;-76
2021/08/01 17:01:27;;;;;;;13.93;5.43;;;;;;;24.26;62.86;97839.97;125669;1095;102986;-75
2021/08/01 17:03:57;;;;;;;;;;;;;;;24.26;63.15;97844.59;125648;1093;103009;-77
2021/08/01 17:06:54;;;;;;;14.33;5.77;;;;;;;24.20;63.25;97839.02;125649;1093;102935;-77
2021/08/01 17:09:43;;;;;;;12.10;5.30;;;;;;;24.18;63.00;97846.56;125618;1093;102962;-76
2021/08/01 17:12:17;;;;;;;9.90;4.93;;;;;;;24.17;63.14;97880.22;125694;1093;103009;-77
2021/08/01 17:14:53;;;;;;;11.90;5.30;;;;;;;24.09;62.75;97875.09;125667;1092;102981;-77
2021/08/01 17:17:25;;;;;;;13.27;5.67;;;;;;;24.05;63.46;97880.17;125623;1093;103085;-77
2021/08/01 17:19:55;;;;;;;13.80;5.53;;;;;;;23.99;63.15;97901.98;125628;1093;103041;-77
2021/08/01 17:22:26;;;;;;;11.80;5.67;;;;;;;23.93;63.05;97947.13;125562;1093;103508;-81
2021/08/01 17:24:58;;;;;;;15.17;5.47;;;;;;;23.84;62.89;97979.19;125617;1095;102944;-75
2021/08/01 17:27:28;;;;;;;12.03;5.20;;;;;;;23.75;63.04;97989.52;125639;1095;102997;-73
2021/08/01 17:30:01;;;;;;;11.70;5.67;;;;;;;23.69;63.04;97994.98;125636;1093;103308;-74
2021/08/01 17:32:41;;;;;;;13.70;5.33;;;;;;;23.63;63.57;97980.44;125598;1093;102908;-72
2021/08/01 17:35:11;;;;;;;8.87;5.03;;;;;;;23.48;63.41;97978.06;125584;1094;103342;-74
2021/08/01 17:37:46;;;;;;;9.80;4.27;;;;;;;23.31;63.46;97950.66;125621;1093;103064;-73
2021/08/01 17:40:22;;;;;;;12.83;5.47;;;;;;;23.08;63.51;97935.77;125621;1094;103068;-72
2021/08/01 17:42:59;;;;;;;12.53;4.87;;;;;;;22.92;63.37;97920.88;125598;1093;102911;-71
2021/08/01 17:45:29;;;;;;;12.10;5.07;;;;;;;22.78;63.60;97914.73;125639;1091;102936;-73
2021/08/01 17:47:58;;;;;;;13.27;5.63;;;;;;;22.62;63.74;97907.95;125604;1093;103012;-77
2021/08/01 17:50:28;;;;;;;11.70;4.90;;;;;;;22.49;63.70;97891.77;125621;1093;103009;-77
2021/08/01 17:52:56;;;;;;;11.77;4.83;;;;;;;22.34;63.67;97868.51;125592;1094;102916;-75
2021/08/01 17:55:26;;;;;;;13.10;5.23;;;;;;;22.29;63.97;97850.18;125602;1093;103071;-75
2021/08/01 17:57:56;;;;;;;9.83;4.70;;;;;;;22.34;64.07;97827.03;125660;1093;103230;-75
2021/08/01 18:00:28;;;;;;;12.33;5.23;;;;;;;22.36;64.15;97803.27;125647;1095;102917;-77
2021/08/01 18:03:04;;;;;;;14.17;5.20;;;;;;;22.37;64.42;97750.75;125647;1093;103090;-72
2021/08/01 18:05:39;;;;;;;11.10;4.77;;;;;;;22.37;64.74;97726.38;125678;1094;103009;-75
2021/08/01 18:08:23;;;;;;;10.67;5.30;;;;;;;22.36;64.60;97705.75;125697;1092;103093;-73
2021/08/01 18:11:01;;;;;;;12.13;4.95;;;;;;;22.34;64.36;97700.58;125567;1093;103383;-74
2021/08/01 18:13:34;;;;;;;14.63;5.90;;;;;;;22.33;64.62;97700.78;125610;1092;102965;-75
2021/08/01 18:16:03;;;;;;;15.58;6.00;;;;;;;22.31;65.12;97696.41;126037;1093;102999;-77
2021/08/01 18:18:38;;;;;;;10.17;5.53;;;;;;;22.31;64.78;97711.84;125619;1094;102978;-78
2021/08/01 18:21:12;;;;;;;10.67;5.20;;;;;;;22.28;64.84;97725.83;125573;1093;103053;-82
2021/08/01 18:23:52;;;;;;;12.30;5.93;;;;;;;22.26;64.91;97723.33;125962;1091;102926;-82
2021/08/01 18:26:27;;;;;;;11.70;6.35;;;;;;;22.23;65.09;97723.76;125985;1094;102916;-77
2021/08/01 18:29:04;;;;;;;12.40;5.53;;;;;;;22.23;65.36;97714.82;125555;1094;103016;-76
2021/08/01 18:31:32;;;;;;;12.40;5.20;;;;;;;22.19;65.36;97717.16;125559;1093;102997;-75
2021/08/01 18:34:06;;;;;;;11.87;5.37;;;;;;;22.16;65.48;97725.72;125605;1093;102989;-79
2021/08/01 18:36:34;;;;;;;12.73;5.23;;;;;;;22.12;65.43;97719.89;125618;1091;102938;-73
2021/08/01 18:39:02;;;;;;;11.47;5.37;;;;;;;22.08;65.54;97726.80;125549;1093;103017;-72
2021/08/01 18:41:32;;;;;;;14.23;6.03;;;;;;;22.05;65.49;97721.00;125595;1094;103010;-73
2021/08/01 18:44:03;;;;;;;9.73;5.20;;;;;;;21.98;65.24;97729.17;125578;1093;102971;-73
2021/08/01 18:46:37;;;;;;;13.60;5.57;;;;;;;21.90;65.52;97724.83;125588;1093;103020;-73
2021/08/01 18:49:12;;;;;;;12.30;5.57;;;;;;;21.85;65.58;97733.61;125584;1093;102942;-72
2021/08/01 18:51:49;;;;;;;12.87;6.20;;;;;;;21.80;65.68;97725.31;125614;1094;103183;-72
2021/08/01 18:54:18;;;;;;;12.70;5.27;;;;;;;21.70;65.63;97725.80;125596;1093;102974;-72
2021/08/01 18:56:51;;;;;;;13.00;6.07;;;;;;;21.58;65.90;97740.19;125559;1093;103005;-72
2021/08/01 18:59:21;;;;;;;15.33;6.17;;;;;;;21.46;65.68;97746.27;125567;1093;103215;-74
2021/08/01 19:01:50;;;;;;;16.57;6.10;;;;;;;21.38;65.54;97751.91;125640;1093;103046;-73
2021/08/01 19:04:20;;;;;;;16.57;6.57;;;;;;;21.29;65.99;97764.85;125515;1093;103032;-75
2021/08/01 19:06:49;;;;;;;17.87;5.77;;;;;;;21.22;66.09;97761.33;125549;1094;103109;-75
2021/08/01 19:09:20;;;;;;;13.47;5.53;;;;;;;21.16;66.44;97760.32;125633;1094;102412;-75
2021/08/01 19:11:48;;;;;;;12.80;6.23;;;;;;;21.12;66.50;97761.78;125562;1093;102834;-72
2021/08/01 19:14:17;;;;;;;15.30;6.57;;;;;;;21.11;66.68;97763.64;125601;1093;102943;-73
2021/08/01 19:17:04;;;;;;;13.87;6.30;;;;;;;21.12;66.62;97756.38;125614;1093;103028;-73
2021/08/01 19:19:38;;;;;;;18.10;7.35;;;;;;;21.14;66.89;97751.59;125649;1092;103057;-72
2021/08/01 19:22:15;;;;;;;17.27;6.93;;;;;;;21.10;66.92;97739.53;125605;1093;103077;-73
2021/08/01 19:24:54;;;;;;;15.43;6.53;;;;;;;21.08;67.03;97741.63;125644;1093;103019;-71
2021/08/01 19:27:27;;;;;;;13.83;6.50;;;;;;;21.04;66.94;97752.00;125541;1092;103029;-74
2021/08/01 19:30:01;;;;;;;14.33;6.10;;;;;;;21.02;67.18;97758.68;125617;1094;103047;-73
2021/08/01 19:33:03;;;;;;;14.73;7.13;;;;;;;21.01;67.27;97752.43;125763;1093;103036;-74
2021/08/01 19:35:34;;;;;;;14.03;6.73;;;;;;;21.03;67.33;97758.45;125679;1093;102945;-77
2021/08/01 19:38:05;;;;;;;15.97;7.23;;;;;;;21.00;67.09;97768.88;125658;1092;102909;-74
2021/08/01 19:40:35;;;;;;;15.85;7.60;;;;;;;20.96;67.53;97796.31;127014;1093;103108;-75
2021/08/01 19:43:04;;;;;;;17.43;6.60;;;;;;;20.91;67.46;97825.03;125705;1091;102917;-74
2021/08/01 19:45:32;;;;;;;18.63;7.20;;;;;;;20.85;67.52;97844.77;125713;1093;102913;-75
2021/08/01 19:48:00;;;;;;;16.47;6.90;;;;;;;20.77;67.79;97841.23;125710;1095;103005;-75
2021/08/01 19:50:31;;;;;;;17.77;6.63;;;;;;;20.74;67.81;97855.13;125642;1093;103070;-74
2021/08/01 19:53:00;;;;;;;15.93;6.80;;;;;;;20.71;68.06;97862.83;125629;1095;102933;-74
2021/08/01 19:55:29;;;;;;;15.87;6.83;;;;;;;20.67;68.01;97838.92;126397;1093;102919;-74
2021/08/01 19:57:58;;;;;;;15.73;5.60;;;;;;;20.65;68.19;97849.10;125732;1093;103061;-74
2021/08/01 20:00:27;;;;;;;14.27;5.67;;;;;;;20.65;68.24;97829.34;125724;1093;103087;-75
2021/08/01 20:02:55;;;;;;;11.33;4.97;;;;;;;20.64;67.99;97831.23;125687;1093;102911;-76
2021/08/01 20:05:25;;;;;;;12.80;5.63;;;;;;;20.64;68.61;97822.28;125799;1093;103013;-77
2021/08/01 20:07:53;;;;;;;11.00;5.20;;;;;;;20.65;68.48;97823.94;125823;1093;103160;-75
2021/08/01 20:10:22;;;;;;;24.90;13.90;;;;;;;20.64;68.57;97830.38;125795;1093;103084;-75
2021/08/01 20:12:51;;;;;;;16.40;7.60;;;;;;;20.63;68.62;97817.91;125761;1094;103157;-76
2021/08/01 20:15:20;;;;;;;13.17;6.63;;;;;;;20.64;68.79;97814.17;125757;1092;102943;-76
2021/08/01 20:17:48;;;;;;;14.37;7.03;;;;;;;20.65;68.63;97800.47;125724;1093;102940;-76
2021/08/01 20:20:17;;;;;;;15.90;6.73;;;;;;;20.66;68.99;97791.33;125768;1093;103010;-76
2021/08/01 20:22:49;;;;;;;13.03;6.00;;;;;;;20.66;68.80;97776.98;125781;1095;102977;-76
2021/08/01 20:25:17;;;;;;;18.37;6.20;;;;;;;20.66;69.04;97761.61;125775;1095;102943;-75
2021/08/01 20:27:45;;;;;;;11.90;5.37;;;;;;;20.68;69.08;97748.73;125707;1093;103006;-75
2021/08/01 20:30:14;;;;;;;12.60;5.77;;;;;;;20.68;69.17;97737.08;125800;1093;104061;-75
2021/08/01 20:32:42;;;;;;;11.37;5.40;;;;;;;20.68;69.13;97743.33;125707;1094;102948;-76
2021/08/01 20:35:11;;;;;;;13.73;5.80;;;;;;;20.69;69.01;97741.44;125724;1096;102945;-76
2021/08/01 20:37:39;;;;;;;9.57;4.63;;;;;;;20.66;69.29;97747.27;125671;1093;103234;-76
2021/08/01 20:40:09;;;;;;;9.95;5.15;;;;;;;20.50;69.17;97725.06;125658;1093;103371;-75
2021/08/01 20:42:40;;;;;;;12.03;5.57;;;;;;;20.46;69.28;97721.11;125700;1092;103061;-74
2021/08/01 20:45:09;;;;;;;10.73;4.40;;;;;;;20.45;69.38;97719.45;125703;1096;103451;-73
2021/08/01 20:47:38;;;;;;;11.10;4.90;;;;;;;20.38;69.73;97718.62;125620;1093;103020;-76
2021/08/01 20:50:09;;;;;;;11.87;4.77;;;;;;;20.28;69.47;97721.73;125649;1093;102978;-76
2021/08/01 20:52:37;;;;;;;13.67;5.10;;;;;;;20.26;69.56;97713.02;125640;1095;103096;-76
2021/08/01 20:55:09;;;;;;;12.83;5.10;;;;;;;20.31;69.87;97715.08;125602;1093;103008;-76
2021/08/01 20:57:38;;;;;;;11.80;5.30;;;;;;;20.30;69.68;97716.96;125637;1093;102929;-76
2021/08/01 21:00:08;;;;;;;10.93;5.30;;;;;;;20.20;69.74;97701.16;125642;1093;102935;-76
2021/08/01 21:02:36;;;;;;;12.67;5.47;;;;;;;20.16;70.01;97693.69;125657;1096;102909;-75
2021/08/01 21:05:05;;;;;;;12.93;5.70;;;;;;;20.13;69.81;97691.41;125614;1093;103149;-74
2021/08/01 21:07:33;;;;;;;9.87;5.23;;;;;;;20.08;69.94;97684.75;125663;1093;102997;-75
2021/08/01 21:10:03;;;;;;;15.80;5.30;;;;;;;20.10;70.20;97683.72;125656;1092;102941;-75
2021/08/01 21:12:32;;;;;;;12.10;5.20;;;;;;;20.13;70.39;97683.30;125649;1095;103015;-74
2021/08/01 21:15:00;;;;;;;11.37;5.07;;;;;;;20.08;70.23;97692.85;125660;1093;103118;-75
2021/08/01 21:17:29;;;;;;;11.00;4.70;;;;;;;19.96;70.09;97690.98;125663;1093;103684;-74
2021/08/01 21:20:00;;;;;;;8.87;4.60;;;;;;;19.87;70.20;97691.14;125685;1093;102913;-74
2021/08/01 21:22:28;;;;;;;11.07;5.30;;;;;;;19.77;70.23;97677.21;125676;1094;102938;-75
2021/08/01 21:25:00;;;;;;;12.80;5.03;;;;;;;19.72;70.24;97674.33;125654;1095;102913;-75
2021/08/01 21:27:32;;;;;;;11.87;4.90;;;;;;;19.66;70.43;97670.56;125681;1095;102948;-75
2021/08/01 21:30:03;;;;;;;10.00;4.93;;;;;;;19.66;70.44;97678.66;125652;1094;102910;-75
2021/08/01 21:32:31;;;;;;;11.60;5.23;;;;;;;19.71;70.73;97680.75;125675;1092;103105;-74
2021/08/01 21:35:00;;;;;;;13.47;5.77;;;;;;;19.77;70.90;97694.25;125693;1092;102995;-75
2021/08/01 21:37:28;;;;;;;10.43;5.07;;;;;;;19.83;71.05;97716.05;125686;1093;103121;-75
2021/08/01 21:39:56;;;;;;;11.00;4.83;;;;;;;19.89;70.70;97724.17;125624;1093;102929;-76
2021/08/01 21:42:26;;;;;;;9.53;4.60;;;;;;;19.88;71.25;97725.21;125673;1094;102920;-75
2021/08/01 21:44:56;;;;;;;10.13;4.33;;;;;;;19.77;70.84;97725.77;125695;1095;103008;-76
2021/08/01 21:47:26;;;;;;;11.87;4.57;;;;;;;19.71;71.00;97730.13;125693;1096;102913;-75
2021/08/01 21:49:56;;;;;;;14.67;5.30;;;;;;;19.71;71.02;97730.13;125666;1094;102922;-76
2021/08/01 21:52:27;;;;;;;18.83;5.37;;;;;;;19.73;71.41;97732.64;125656;1096;103032;-75
2021/08/01 21:54:56;;;;;;;10.80;4.45;;;;;;;19.70;71.39;97733.04;125654;1093;102980;-74
2021/08/01 21:57:24;;;;;;;11.70;4.93;;;;;;;19.66;71.12;97740.69;125682;1096;102939;-75
2021/08/01 21:59:52;;;;;;;9.67;4.63;;;;;;;19.67;71.19;97741.53;125678;1096;103060;-75
2021/08/01 22:02:21;;;;;;;13.60;5.65;;;;;;;19.62;71.14;97747.52;125626;1094;103423;-73
2021/08/01 22:04:53;;;;;;;10.70;4.93;;;;;;;19.62;71.67;97771.80;125626;1093;103001;-75
2021/08/01 22:07:26;;;;;;;13.97;5.77;;;;;;;19.65;71.82;97787.58;125634;1093;103009;-75
2021/08/01 22:10:00;;;;;;;12.70;5.27;;;;;;;19.64;71.69;97802.09;125592;1092;102917;-78
2021/08/01 22:12:28;;;;;;;11.13;5.18;;;;;;;19.66;71.75;97805.42;125613;1092;103047;-74
2021/08/01 22:14:57;;;;;;;12.30;5.90;;;;;;;19.65;71.85;97801.06;125665;1095;103153;-73
2021/08/01 22:17:28;;;;;;;13.67;5.37;;;;;;;19.62;72.02;97813.10;125794;1092;103098;-74
2021/08/01 22:19:56;;;;;;;11.40;5.23;;;;;;;19.60;71.70;97827.80;125617;1093;103084;-74
2021/08/01 22:22:25;;;;;;;14.83;5.83;;;;;;;19.56;71.72;97821.98;125785;1093;102978;-74
2021/08/01 22:24:54;;;;;;;13.90;5.77;;;;;;;19.53;71.94;97827.78;125693;1092;102911;-73
2021/08/01 22:27:26;;;;;;;11.80;5.73;;;;;;;19.52;72.01;97809.94;125652;1094;103057;-74
2021/08/01 22:29:57;;;;;;;15.03;5.80;;;;;;;19.51;72.09;97810.15;125750;1093;102928;-77
2021/08/01 22:32:29;;;;;;;11.47;5.50;;;;;;;19.49;72.02;97807.63;125613;1093;103071;-74
2021/08/01 22:35:00;;;;;;;9.67;4.90;;;;;;;19.48;72.17;97808.66;125685;1094;103087;-73
2021/08/01 22:37:31;;;;;;;12.17;5.37;;;;;;;19.51;72.21;97810.97;125598;1095;102913;-74
2021/08/01 22:40:02;;;;;;;11.47;4.77;;;;;;;19.53;72.47;97821.56;125662;1093;103435;-73
2021/08/01 22:42:33;;;;;;;10.87;4.67;;;;;;;19.55;72.28;97822.20;125762;1095;103053;-74
2021/08/01 22:45:01;;;;;;;11.50;5.43;;;;;;;19.55;72.18;97835.69;125690;1094;103083;-74
2021/08/01 22:47:31;;;;;;;12.57;5.03;;;;;;;19.57;72.34;97830.89;125672;1093;103015;-74
2021/08/01 22:49:59;;;;;;;13.60;4.95;;;;;;;19.56;72.25;97819.29;125674;1095;102925;-74
2021/08/01 22:52:30;;;;;;;10.87;4.93;;;;;;;19.54;72.43;97815.14;125671;1094;103396;-74
2021/08/01 22:55:00;;;;;;;8.87;4.70;;;;;;;19.53;72.49;97803.51;125697;1095;103026;-75
2021/08/01 22:57:28;;;;;;;12.40;5.30;;;;;;;19.51;72.42;97799.36;125678;1096;103090;-73
2021/08/01 22:59:57;;;;;;;8.77;4.77;;;;;;;19.48;72.38;97809.52;125940;1094;102996;-74
2021/08/01 23:02:29;;;;;;;10.17;4.57;;;;;;;19.46;72.65;97810.73;125665;1092;102913;-74
2021/08/01 23:05:06;;;;;;;8.63;4.67;;;;;;;19.43;72.76;97805.73;125743;1095;102918;-74
2021/08/01 23:08:01;;;;;;;11.20;4.83;;;;;;;19.40;72.67;97814.22;125771;1093;102919;-76
2021/08/01 23:10:40;;;;;;;9.57;4.50;;;;;;;19.38;72.65;97827.06;126091;1093;103432;-73
2021/08/01 23:13:15;;;;;;;14.30;4.40;;;;;;;19.35;72.54;97825.61;125616;1093;102919;-74
2021/08/01 23:15:48;;;;;;;8.63;4.60;;;;;;;19.31;72.96;97817.11;125679;1093;103020;-74
2021/08/01 23:18:38;;;;;;;10.53;4.27;;;;;;;19.28;73.10;97822.89;125834;1095;102922;-73
2021/08/01 23:21:06;;;;;;;10.77;4.30;;;;;;;19.24;72.81;97816.23;125751;1092;103044;-73
2021/08/01 23:23:42;;;;;;;10.57;4.60;;;;;;;19.21;72.72;97799.59;125717;1093;103047;-72
2021/08/01 23:26:16;;;;;;;9.60;4.40;;;;;;;19.21;72.76;97818.47;125653;1096;103081;-73
2021/08/01 23:28:47;;;;;;;8.17;4.37;;;;;;;19.19;72.85;97816.80;125729;1095;102923;-74
2021/08/01 23:31:21;;;;;;;7.57;4.00;;;;;;;19.19;73.08;97813.29;125652;1095;102909;-74
2021/08/01 23:33:54;;;;;;;10.05;4.50;;;;;;;19.16;73.08;97806.41;126699;1094;102027;-73
2021/08/01 23:36:26;;;;;;;7.80;4.07;;;;;;;19.14;73.02;97813.89;125695;1093;103125;-73
2021/08/01 23:38:56;;;;;;;14.27;5.17;;;;;;;19.09;73.05;97827.13;125815;1092;102994;-74
2021/08/01 23:41:29;;;;;;;14.80;5.30;;;;;;;19.09;73.17;97827.13;125653;1093;103010;-75
2021/08/01 23:44:00;;;;;;;9.40;4.57;;;;;;;19.08;73.21;97813.83;125663;1095;103143;-76
2021/08/01 23:46:32;;;;;;;8.47;4.67;;;;;;;19.05;73.08;97820.46;125625;1095;103031;-77
2021/08/01 23:49:02;;;;;;;11.43;4.60;;;;;;;19.01;72.91;97835.36;125613;1095;103055;-75
2021/08/01 23:51:47;;;;;;;11.17;4.67;;;;;;;18.98;73.22;97831.17;125658;1094;103007;-75
2021/08/01 23:54:39;;;;;;;11.07;4.70;;;;;;;18.96;73.02;97841.31;125639;1093;103020;-75
2021/08/01 23:58:03;;;;;;;7.63;4.67;;;;;;;18.90;73.09;97845.59;125682;1092;102909;-74
